createdAt,value
2018-11-28T00:00:33.616Z,34.40
2018-11-28T00:03:05.299Z,36.10
2018-11-28T00:05:33.388Z,34.47
2018-11-28T00:08:01.428Z,31.57
2018-11-28T00:10:29.389Z,37.90
2018-11-28T00:12:58.280Z,35.90
2018-11-28T00:15:26.584Z,36.00
2018-11-28T00:17:54.820Z,35.57
2018-11-28T00:20:24.296Z,34.60
2018-11-28T00:22:52.168Z,33.63
2018-11-28T00:25:20.155Z,36.80
2018-11-28T00:27:48.014Z,33.13
2018-11-28T00:30:19.771Z,33.33
2018-11-28T00:32:47.752Z,34.70
2018-11-28T00:35:17.099Z,36.63
2018-11-28T00:37:44.951Z,32.70
2018-11-28T00:40:15.536Z,41.90
2018-11-28T00:42:43.397Z,34.90
2018-11-28T00:45:14.184Z,39.30
2018-11-28T00:47:42.365Z,35.00
2018-11-28T00:50:21.680Z,38.37
2018-11-28T00:52:49.644Z,32.77
2018-11-28T00:55:18.054Z,31.03
2018-11-28T00:57:46.310Z,36.60
2018-11-28T01:00:18.390Z,37.40
2018-11-28T01:02:46.804Z,37.50
2018-11-28T01:05:15.344Z,44.30
2018-11-28T01:07:43.945Z,43.03
2018-11-28T01:10:13.854Z,38.47
2018-11-28T01:12:42.066Z,43.00
2018-11-28T01:15:11.599Z,41.50
2018-11-28T01:17:39.968Z,37.20
2018-11-28T01:20:13.290Z,40.40
2018-11-28T01:22:41.407Z,35.60
2018-11-28T01:25:13.570Z,37.00
2018-11-28T01:27:42.036Z,38.27
2018-11-28T01:30:17.188Z,33.67
2018-11-28T01:32:45.402Z,40.77
2018-11-28T01:35:14.211Z,34.70
2018-11-28T01:37:42.328Z,38.83
2018-11-28T01:40:22.431Z,38.33
2018-11-28T01:42:51.034Z,35.23
2018-11-28T01:45:20.867Z,32.27
2018-11-28T01:47:49.164Z,37.67
2018-11-28T01:50:19.279Z,39.43
2018-11-28T01:52:47.621Z,39.17
2018-11-28T01:55:26.124Z,37.93
2018-11-28T01:57:54.292Z,35.37
2018-11-28T02:00:24.930Z,35.90
2018-11-28T02:02:55.191Z,31.60
2018-11-28T02:05:23.109Z,31.17
2018-11-28T02:07:51.048Z,36.43
2018-11-28T02:10:19.463Z,32.30
2018-11-28T02:12:47.748Z,39.70
2018-11-28T02:15:17.992Z,35.63
2018-11-28T02:17:45.911Z,38.23
2018-11-28T02:20:15.732Z,35.03
2018-11-28T02:22:43.787Z,29.00
2018-11-28T02:25:12.705Z,33.90
2018-11-28T02:27:41.668Z,33.70
2018-11-28T02:30:11.169Z,40.03
2018-11-28T02:32:39.994Z,31.50
2018-11-28T02:35:09.684Z,33.77
2018-11-28T02:37:38.239Z,33.33
2018-11-28T02:40:08.941Z,40.90
2018-11-28T02:42:36.819Z,33.67
2018-11-28T02:45:07.702Z,39.47
2018-11-28T02:47:35.612Z,35.00
2018-11-28T02:50:04.186Z,34.77
2018-11-28T02:52:32.044Z,31.43
2018-11-28T02:55:00.342Z,33.87
2018-11-28T02:57:28.335Z,35.57
2018-11-28T02:59:56.417Z,30.43
2018-11-28T03:02:24.730Z,31.67
2018-11-28T03:04:53.928Z,30.50
2018-11-28T03:07:21.960Z,32.73
2018-11-28T03:09:50.037Z,29.83
2018-11-28T03:12:18.260Z,29.37
2018-11-28T03:14:46.486Z,31.77
2018-11-28T03:17:20.156Z,36.83
2018-11-28T03:19:48.184Z,29.53
2018-11-28T03:22:16.362Z,30.43
2018-11-28T03:24:44.576Z,38.37
2018-11-28T03:27:12.945Z,33.77
2018-11-28T03:29:41.014Z,39.60
2018-11-28T03:32:09.062Z,36.83
2018-11-28T03:34:37.079Z,29.03
2018-11-28T03:37:05.525Z,27.83
2018-11-28T03:39:33.768Z,33.30
2018-11-28T03:44:48.182Z,36.27
2018-11-28T03:47:16.567Z,31.30
2018-11-28T03:49:44.521Z,32.37
2018-11-28T03:52:12.728Z,27.50
2018-11-28T03:54:40.758Z,27.83
2018-11-28T03:57:09.103Z,29.30
2018-11-28T03:59:37.496Z,34.47
2018-11-28T04:02:06.084Z,30.27
2018-11-28T04:04:34.087Z,36.17
2018-11-28T04:07:02.234Z,39.50
2018-11-28T04:09:30.522Z,40.33
2018-11-28T04:11:59.009Z,33.17
2018-11-28T04:14:27.334Z,40.30
2018-11-28T04:16:55.294Z,42.37
2018-11-28T04:19:23.380Z,39.80
2018-11-28T04:21:51.377Z,50.33
2018-11-28T04:24:19.460Z,51.30
2018-11-28T04:26:47.573Z,72.07
2018-11-28T04:29:16.021Z,103.80
2018-11-28T04:31:44.155Z,97.27
2018-11-28T04:34:12.282Z,96.23
2018-11-28T04:36:40.226Z,99.27
2018-11-28T04:39:08.751Z,70.33
2018-11-28T04:41:37.002Z,123.30
2018-11-28T04:44:05.819Z,85.00
2018-11-28T04:46:34.786Z,123.37
2018-11-28T04:49:03.207Z,112.20
2018-11-28T04:51:31.401Z,72.27
2018-11-28T04:53:59.688Z,96.27
2018-11-28T04:56:28.348Z,99.07
2018-11-28T04:58:56.347Z,43.40
2018-11-28T05:01:24.817Z,60.27
2018-11-28T05:03:53.198Z,66.50
2018-11-28T05:06:33.013Z,56.10
2018-11-28T05:09:01.115Z,69.57
2018-11-28T05:11:29.035Z,51.40
2018-11-28T05:13:57.085Z,71.17
2018-11-28T05:16:24.831Z,63.90
2018-11-28T05:18:52.756Z,59.23
2018-11-28T05:21:20.663Z,77.63
2018-11-28T05:23:48.646Z,51.53
2018-11-28T05:26:17.233Z,64.03
2018-11-28T05:28:44.987Z,91.03
2018-11-28T05:31:12.767Z,60.23
2018-11-28T05:33:40.613Z,65.23
2018-11-28T05:36:08.474Z,58.27
2018-11-28T05:38:36.304Z,53.47
2018-11-28T05:41:04.739Z,55.80
2018-11-28T05:43:32.520Z,38.50
2018-11-28T05:46:00.403Z,56.40
2018-11-28T05:48:28.156Z,74.60
2018-11-28T05:50:56.276Z,35.00
2018-11-28T05:53:24.099Z,41.30
2018-11-28T05:55:52.084Z,69.17
2018-11-28T05:58:19.992Z,47.23
2018-11-28T06:00:47.765Z,69.17
2018-11-28T06:03:15.596Z,72.57
2018-11-28T06:05:43.773Z,35.40
2018-11-28T06:08:11.685Z,49.80
2018-11-28T06:10:39.465Z,65.23
2018-11-28T06:13:07.396Z,41.93
2018-11-28T06:15:35.325Z,54.97
2018-11-28T06:18:03.242Z,55.50
2018-11-28T06:20:31.171Z,45.83
2018-11-28T06:22:59.120Z,48.17
2018-11-28T06:25:26.900Z,90.40
2018-11-28T06:27:54.717Z,49.03
2018-11-28T06:30:22.457Z,63.17
2018-11-28T06:32:51.507Z,39.93
2018-11-28T06:35:17.887Z,70.10
2018-11-28T06:37:45.794Z,74.43
2018-11-28T06:40:14.407Z,40.30
2018-11-28T06:42:43.327Z,55.10
2018-11-28T06:45:13.927Z,59.83
2018-11-28T06:47:41.797Z,85.20
2018-11-28T06:50:13.640Z,60.93
2018-11-28T06:52:41.884Z,51.30
2018-11-28T06:55:13.203Z,49.10
2018-11-28T06:57:41.084Z,49.60
2018-11-28T07:00:11.912Z,50.80
2018-11-28T07:02:40.735Z,45.00
2018-11-28T07:05:08.632Z,87.80
2018-11-28T07:07:36.371Z,41.90
2018-11-28T07:10:05.422Z,51.17
2018-11-28T07:12:33.213Z,47.97
2018-11-28T07:15:00.991Z,41.00
2018-11-28T07:17:28.799Z,35.53
2018-11-28T07:19:56.603Z,69.00
2018-11-28T07:22:24.399Z,62.13
2018-11-28T07:24:52.266Z,50.80
2018-11-28T07:27:20.042Z,35.30
2018-11-28T07:29:47.756Z,63.67
2018-11-28T07:32:15.610Z,70.37
2018-11-28T07:34:43.328Z,51.20
2018-11-28T07:37:11.220Z,48.53
2018-11-28T07:39:39.001Z,81.13
2018-11-28T07:42:06.902Z,70.80
2018-11-28T07:44:34.714Z,84.97
2018-11-28T07:47:02.711Z,37.13
2018-11-28T07:49:30.513Z,46.43
2018-11-28T07:51:58.228Z,91.20
2018-11-28T07:54:26.119Z,58.33
2018-11-28T07:56:53.809Z,38.83
2018-11-28T07:59:21.531Z,47.77
2018-11-28T08:01:49.349Z,36.50
2018-11-28T08:04:17.262Z,41.70
2018-11-28T08:06:45.158Z,37.27
2018-11-28T08:09:12.888Z,33.97
2018-11-28T08:11:40.710Z,32.97
2018-11-28T08:14:08.670Z,33.83
2018-11-28T08:16:36.597Z,37.97
2018-11-28T08:19:04.548Z,39.00
2018-11-28T08:21:32.381Z,31.13
2018-11-28T08:24:00.283Z,33.83
2018-11-28T08:26:28.032Z,35.67
2018-11-28T08:28:55.856Z,29.67
2018-11-28T08:31:23.727Z,32.47
2018-11-28T08:33:51.513Z,30.53
2018-11-28T08:36:19.326Z,26.73
2018-11-28T08:38:47.157Z,25.73
2018-11-28T08:41:14.896Z,25.03
2018-11-28T08:43:42.682Z,25.30
2018-11-28T08:46:10.536Z,28.13
2018-11-28T08:48:38.236Z,26.70
2018-11-28T08:51:06.125Z,25.50
2018-11-28T08:53:34.543Z,28.40
2018-11-28T08:56:02.242Z,27.17
2018-11-28T08:58:29.938Z,28.40
2018-11-28T09:00:58.015Z,23.07
2018-11-28T09:03:25.664Z,28.80
2018-11-28T09:05:53.335Z,29.07
2018-11-28T09:08:21.059Z,31.77
2018-11-28T09:10:48.826Z,34.20
2018-11-28T09:13:16.597Z,35.13
2018-11-28T09:15:44.290Z,38.30
2018-11-28T09:18:12.228Z,38.63
2018-11-28T09:20:39.937Z,38.03
2018-11-28T09:23:07.770Z,37.40
2018-11-28T09:25:35.487Z,33.10
2018-11-28T09:28:03.130Z,30.87
2018-11-28T09:30:30.886Z,29.87
2018-11-28T09:32:58.635Z,27.23
2018-11-28T09:35:26.495Z,30.70
2018-11-28T09:37:54.317Z,34.50
2018-11-28T09:40:25.129Z,30.97
2018-11-28T09:42:55.049Z,32.77
2018-11-28T09:45:22.948Z,32.13
2018-11-28T09:47:50.953Z,34.50
2018-11-28T09:50:19.831Z,27.57
2018-11-28T09:52:47.627Z,32.40
2018-11-28T09:55:17.523Z,30.47
2018-11-28T09:57:45.286Z,32.87
2018-11-28T10:00:17.110Z,31.97
2018-11-28T10:02:44.888Z,31.60
2018-11-28T10:05:15.786Z,37.20
2018-11-28T10:07:43.703Z,36.73
2018-11-28T10:10:12.147Z,37.23
2018-11-28T10:12:41.967Z,27.30
2018-11-28T10:15:15.873Z,33.53
2018-11-28T10:17:43.792Z,29.50
2018-11-28T10:20:12.867Z,31.30
2018-11-28T10:22:41.404Z,30.63
2018-11-28T10:25:10.824Z,28.67
2018-11-28T10:27:38.716Z,28.20
2018-11-28T10:30:13.943Z,30.47
2018-11-28T10:32:41.817Z,30.87
2018-11-28T10:35:09.691Z,33.63
2018-11-28T10:37:37.360Z,34.70
2018-11-28T10:40:08.964Z,29.57
2018-11-28T10:42:36.749Z,27.40
2018-11-28T10:45:05.953Z,28.20
2018-11-28T10:47:33.596Z,27.93
2018-11-28T10:50:01.348Z,27.73
2018-11-28T10:52:29.055Z,31.23
2018-11-28T10:54:56.802Z,26.03
2018-11-28T10:57:24.670Z,26.87
2018-11-28T10:59:52.454Z,24.73
2018-11-28T11:02:25.798Z,26.30
2018-11-28T11:04:59.066Z,29.23
2018-11-28T11:07:32.453Z,23.53
2018-11-28T11:10:05.755Z,25.33
2018-11-28T11:12:39.226Z,22.63
2018-11-28T11:15:07.002Z,25.70
2018-11-28T11:17:34.632Z,25.00
2018-11-28T11:20:02.424Z,29.73
2018-11-28T11:22:30.108Z,26.83
2018-11-28T11:24:57.712Z,24.00
2018-11-28T11:27:25.587Z,23.67
2018-11-28T11:29:54.000Z,23.17
2018-11-28T11:32:21.907Z,25.03
2018-11-28T11:34:49.604Z,26.73
2018-11-28T11:37:17.380Z,31.57
2018-11-28T11:39:45.458Z,23.10
2018-11-28T11:42:13.212Z,21.57
2018-11-28T11:44:41.141Z,19.30
2018-11-28T11:47:09.060Z,19.30
2018-11-28T11:49:36.821Z,22.13
2018-11-28T11:52:04.589Z,19.20
2018-11-28T11:54:32.266Z,19.47
2018-11-28T11:57:00.057Z,21.50
2018-11-28T11:59:27.824Z,20.50
2018-11-28T12:01:55.651Z,22.47
2018-11-28T12:04:23.426Z,17.40
2018-11-28T12:06:51.320Z,17.33
2018-11-28T12:09:19.096Z,17.90
2018-11-28T12:11:46.823Z,19.20
2018-11-28T12:14:14.563Z,17.30
2018-11-28T12:16:42.342Z,15.33
2018-11-28T12:19:10.024Z,16.67
2018-11-28T12:21:37.761Z,18.10
2018-11-28T12:24:05.552Z,17.97
2018-11-28T12:26:33.475Z,18.60
2018-11-28T12:29:01.267Z,15.53
2018-11-28T12:31:29.202Z,23.43
2018-11-28T12:33:56.909Z,16.60
2018-11-28T12:36:24.623Z,16.40
2018-11-28T12:38:52.317Z,15.67
2018-11-28T12:41:20.045Z,16.67
2018-11-28T12:43:47.743Z,15.03
2018-11-28T12:46:15.379Z,19.60
2018-11-28T12:48:43.091Z,14.00
2018-11-28T12:51:10.791Z,15.20
2018-11-28T12:53:38.588Z,14.70
2018-11-28T12:56:06.338Z,13.03
2018-11-28T12:58:34.140Z,17.53
2018-11-28T13:01:01.932Z,16.00
2018-11-28T13:03:29.675Z,13.70
2018-11-28T13:05:57.452Z,13.87
2018-11-28T13:08:25.175Z,12.50
2018-11-28T13:10:53.023Z,14.03
2018-11-28T13:13:20.694Z,14.97
2018-11-28T13:15:48.394Z,15.90
2018-11-28T13:18:16.121Z,12.83
2018-11-28T13:20:43.852Z,15.00
2018-11-28T13:23:13.760Z,13.90
2018-11-28T13:25:41.631Z,13.10
2018-11-28T13:28:09.566Z,14.80
2018-11-28T13:30:37.597Z,13.60
2018-11-28T13:33:05.443Z,14.83
2018-11-28T13:35:33.167Z,13.27
2018-11-28T13:38:07.071Z,14.10
2018-11-28T13:40:34.820Z,14.23
2018-11-28T13:43:02.651Z,14.30
2018-11-28T13:45:32.583Z,12.63
2018-11-28T13:48:00.387Z,13.77
2018-11-28T13:50:28.261Z,13.70
2018-11-28T13:52:56.980Z,12.30
2018-11-28T13:55:42.026Z,12.70
2018-11-28T13:58:01.106Z,20.67
2018-11-28T14:00:28.772Z,10.87
2018-11-28T14:02:56.478Z,13.57
2018-11-28T14:05:24.150Z,14.87
2018-11-28T14:07:51.821Z,17.80
2018-11-28T14:10:19.487Z,14.10
2018-11-28T14:12:48.123Z,14.73
2018-11-28T14:15:18.094Z,14.80
2018-11-28T14:18:18.261Z,12.00
2018-11-28T14:20:45.950Z,16.50
2018-11-28T14:23:13.590Z,13.10
2018-11-28T14:25:41.265Z,13.53
2018-11-28T14:28:09.566Z,15.10
2018-11-28T14:30:39.334Z,12.83
2018-11-28T14:33:07.128Z,15.40
2018-11-28T14:35:34.930Z,15.60
2018-11-28T14:38:03.073Z,15.37
2018-11-28T14:40:37.037Z,17.00
2018-11-28T14:43:05.548Z,13.40
2018-11-28T14:45:33.384Z,11.13
2018-11-28T14:50:40.482Z,20.93
2018-11-28T14:53:12.432Z,16.97
2018-11-28T14:55:42.353Z,16.47
2018-11-28T14:58:16.585Z,17.00
2018-11-28T15:00:46.483Z,18.10
2018-11-28T15:03:24.696Z,14.63
2018-11-28T15:07:03.261Z,15.80
2018-11-28T15:09:38.312Z,15.77
2018-11-28T15:15:06.406Z,13.23
2018-11-28T15:17:42.524Z,16.83
2018-11-28T15:20:11.305Z,16.30
2018-11-28T15:22:42.320Z,17.40
2018-11-28T15:25:12.063Z,17.30
2018-11-28T15:27:39.958Z,19.13
2018-11-28T15:30:09.479Z,15.50
2018-11-28T15:32:39.023Z,15.40
2018-11-28T15:35:14.499Z,22.47
2018-11-28T15:37:43.432Z,16.67
2018-11-28T15:40:19.717Z,19.43
2018-11-28T15:48:12.215Z,19.90
2018-11-28T15:50:42.331Z,19.20
2018-11-28T15:53:11.427Z,22.37
2018-11-28T15:55:47.333Z,18.03
2018-11-28T16:01:13.845Z,17.10
2018-11-28T16:06:40.121Z,21.13
2018-11-28T16:09:14.539Z,19.37
2018-11-28T16:11:44.828Z,18.37
2018-11-28T16:14:24.690Z,24.23
2018-11-28T16:16:53.160Z,22.57
2018-11-28T16:22:14.911Z,13.47
2018-11-28T16:24:49.426Z,15.10
2018-11-28T16:27:17.581Z,20.83
2018-11-28T16:29:53.416Z,15.20
2018-11-28T16:35:08.119Z,20.37
2018-11-28T16:37:44.644Z,19.87
2018-11-28T16:45:59.484Z,23.30
2018-11-28T16:48:41.198Z,21.80
2018-11-28T16:51:22.864Z,21.33
2018-11-28T16:59:30.747Z,18.57
2018-11-28T17:07:20.140Z,23.07
2018-11-28T17:10:01.028Z,22.13
2018-11-28T17:18:03.536Z,24.07
2018-11-28T17:20:49.030Z,20.50
2018-11-28T17:26:16.240Z,20.87
2018-11-28T17:34:36.216Z,24.67
2018-11-28T17:42:37.961Z,23.77
2018-11-28T17:50:20.201Z,21.37
2018-11-28T17:53:03.348Z,18.87
2018-11-28T17:55:36.369Z,19.87
2018-11-28T17:58:05.457Z,22.67
2018-11-28T18:00:34.152Z,18.27
2018-11-28T18:03:02.206Z,25.50
2018-11-28T18:05:32.448Z,19.77
2018-11-28T18:08:00.177Z,18.20
2018-11-28T18:10:29.400Z,24.63
2018-11-28T18:13:09.796Z,25.20
2018-11-28T18:15:41.199Z,23.03
2018-11-28T18:18:12.487Z,25.23
2018-11-28T18:20:40.486Z,21.70
2018-11-28T18:23:09.871Z,20.20
2018-11-28T18:25:39.445Z,21.07
2018-11-28T18:28:08.774Z,21.07
2018-11-28T18:30:37.287Z,24.63
2018-11-28T18:33:05.751Z,23.60
2018-11-28T18:35:33.558Z,28.30
2018-11-28T18:38:01.333Z,23.47
2018-11-28T18:40:29.349Z,21.90
2018-11-28T18:43:05.643Z,21.93
2018-11-28T18:45:36.366Z,21.47
2018-11-28T18:48:03.219Z,23.83
2018-11-28T18:50:31.779Z,21.20
2018-11-28T18:52:59.919Z,21.10
2018-11-28T18:55:28.149Z,18.97
2018-11-28T18:57:56.853Z,17.20
2018-11-28T19:00:26.318Z,28.53
2018-11-28T19:02:56.304Z,22.73
2018-11-28T19:05:25.815Z,19.47
2018-11-28T19:07:58.540Z,21.50
2018-11-28T19:10:27.129Z,19.60
2018-11-28T19:12:55.128Z,23.77
2018-11-28T19:15:29.384Z,20.07
2018-11-28T19:17:58.922Z,21.77
2018-11-28T19:20:27.556Z,27.60
2018-11-28T19:22:57.239Z,29.47
2018-11-28T19:25:27.788Z,25.40
2018-11-28T19:27:59.330Z,23.30
2018-11-28T19:30:32.158Z,20.80
2018-11-28T19:33:00.234Z,23.80
2018-11-28T19:35:28.433Z,20.93
2018-11-28T19:37:56.752Z,20.50
2018-11-28T19:40:32.204Z,18.80
2018-11-28T19:43:00.857Z,19.77
2018-11-28T19:45:28.851Z,23.80
2018-11-28T19:47:56.960Z,20.00
2018-11-28T19:50:29.626Z,23.30
2018-11-28T19:52:57.547Z,20.63
2018-11-28T19:55:25.371Z,23.30
2018-11-28T19:57:53.663Z,18.80
2018-11-28T20:00:21.832Z,21.30
2018-11-28T20:02:49.996Z,20.33
2018-11-28T20:05:17.980Z,23.90
2018-11-28T20:07:47.960Z,18.23
2018-11-28T20:10:17.416Z,18.87
2018-11-28T20:12:46.500Z,22.77
2018-11-28T20:15:20.514Z,24.10
2018-11-28T20:17:49.132Z,20.57
2018-11-28T20:20:17.162Z,19.00
2018-11-28T20:22:45.678Z,20.33
2018-11-28T20:25:15.872Z,23.57
2018-11-28T20:27:45.264Z,20.03
2018-11-28T20:30:20.722Z,20.30
2018-11-28T20:32:48.667Z,21.33
2018-11-28T20:35:16.478Z,24.63
2018-11-28T20:37:44.857Z,23.33
2018-11-28T20:40:15.253Z,27.30
2018-11-28T20:42:44.872Z,24.20
2018-11-28T20:45:13.372Z,21.60
2018-11-28T20:47:42.059Z,24.27
2018-11-28T20:50:14.687Z,22.67
2018-11-28T20:52:45.867Z,21.53
2018-11-28T20:55:13.681Z,23.50
2018-11-28T20:57:41.503Z,21.37
2018-11-28T21:00:11.996Z,25.43
2018-11-28T21:02:39.757Z,24.30
2018-11-28T21:05:08.395Z,24.10
2018-11-28T21:07:36.936Z,22.50
2018-11-28T21:10:13.423Z,24.13
2018-11-28T21:12:41.803Z,26.90
2018-11-28T21:15:10.548Z,29.30
2018-11-28T21:17:40.576Z,22.57
2018-11-28T21:20:16.151Z,19.60
2018-11-28T21:22:47.463Z,23.20
2018-11-28T21:25:16.274Z,20.10
2018-11-28T21:27:47.441Z,25.40
2018-11-28T21:30:17.858Z,21.73
2018-11-28T21:32:46.818Z,21.97
2018-11-28T21:35:17.263Z,19.80
2018-11-28T21:37:46.502Z,21.57
2018-11-28T21:40:15.460Z,22.60
2018-11-28T21:42:43.508Z,25.13
2018-11-28T21:45:15.423Z,24.17
2018-11-28T21:47:44.606Z,29.13
2018-11-28T21:50:20.529Z,24.47
2018-11-28T21:52:50.364Z,21.87
2018-11-28T21:55:21.286Z,24.93
2018-11-28T21:57:49.296Z,23.23
2018-11-28T22:00:26.531Z,24.20
2018-11-28T22:02:56.325Z,23.60
2018-11-28T22:05:30.090Z,23.40
2018-11-28T22:07:59.967Z,25.77
2018-11-28T22:10:29.712Z,24.40
2018-11-28T22:13:01.315Z,23.67
2018-11-28T22:15:33.836Z,25.27
2018-11-28T22:18:03.087Z,22.73
2018-11-28T22:20:30.991Z,24.17
2018-11-28T22:23:00.659Z,26.93
2018-11-28T22:25:33.485Z,19.80
2018-11-28T22:28:05.729Z,25.87
2018-11-28T22:30:39.879Z,21.30
2018-11-28T22:33:10.492Z,23.00
2018-11-28T22:35:39.824Z,24.07
2018-11-28T22:38:07.587Z,25.50
2018-11-28T22:40:35.415Z,23.40
2018-11-28T22:43:03.879Z,24.43
2018-11-28T22:45:33.831Z,22.83
2018-11-28T22:48:02.315Z,17.77
2018-11-28T22:50:30.825Z,23.90
2018-11-28T22:52:59.506Z,21.93
2018-11-28T22:55:28.158Z,26.50
2018-11-28T22:57:57.116Z,19.37
2018-11-28T23:00:32.452Z,23.30
2018-11-28T23:03:08.204Z,23.37
2018-11-28T23:05:46.875Z,26.87
2018-11-28T23:08:17.516Z,23.27
2018-11-28T23:10:46.271Z,22.80
2018-11-28T23:13:16.422Z,19.27
2018-11-28T23:15:45.237Z,20.53
2018-11-28T23:18:14.176Z,22.73
2018-11-28T23:20:42.783Z,21.37
2018-11-28T23:23:11.782Z,22.97
2018-11-28T23:25:40.310Z,23.03
2018-11-28T23:28:08.337Z,20.63
2018-11-28T23:30:37.687Z,29.20
2018-11-28T23:33:08.331Z,24.30
2018-11-28T23:35:35.876Z,28.60
2018-11-28T23:38:04.370Z,21.57
2018-11-28T23:40:32.413Z,21.00
2018-11-28T23:43:00.171Z,19.20
2018-11-28T23:45:28.227Z,20.93
2018-11-28T23:47:56.443Z,22.00
2018-11-28T23:50:26.272Z,21.27
2018-11-28T23:52:56.411Z,22.40
2018-11-28T23:55:27.552Z,22.13
2018-11-28T23:57:55.782Z,20.50
